Aérodrome :
LOGIN :

S'inscrire | Disclaimer

   EN    FR    IT 

 










Légende :    VFR   VFR Marginal   IFR   IFR Intensif   IFR Très Intensif
Visi : 
Plafond : 
>= 8 km
>= 3000ft
5 à 8 km
1000 à 3000 ft
1500m à 5 km
500 à 1000 ft
800 à 1500m
200 à 500 ft
< 800m
< 200 ft
Symboles :   Orages  Brouillard  Fortes neiges  Fortes précipitations  Vent > 20 kt
SIGMETs :   Divers  Orages  Givrage  Turbulence  Onde Orograph.  Cendres Volcan.







- Altitude de l'aérodrome : 1339 ft


ETHN - Niederstetten

DERNIER METAR :
  • 221600Z VRB02KT 9999 BKN260 08/03 Q1012 BLU+FCST CANCEL

METARs EXPIRÉS :
  • 221520Z 22005KT 9999 BKN260 09/04 Q1012 BLU+BLU+
  • 221420Z 23006KT 9999 BKN260 11/04 Q1012 BLU+BLU+
  • 221320Z 23008KT 9999 BKN260 11/04 Q1012 BLU+BLU+

TAF TAF ETHN
Valide du 22 à 15h jusqu'au 23 à 00h UTC


221359Z 2215/2224 23005KT 9999 NSW SCT250
Pas de NOTAMs connus pour ce terrain.



MET'MAP, la Météo Aéronautique d'un coup d'oeil ! - Copyright ORBIFLY Décembre 2007 - Disclaimer

ORBIFLY MET'MAP TEAM :

Programmation & Développement : Alexandra Zaïnal
Conception & Développement : Baudouin d'Aumeries
Co-Programmation & Développement : Marc-Olivier Méhu
Soutien technique & logistique : Manuel Goepfert

Contact : metmap@orbifly.com




SOURCES & CREDITS :

   NOAA